Time;durP1;ratioP1;P1;durP2;ratioP2;P2;SDS_P1;SDS_P2;PMS_P1;PMS_P2;Temp;Humidity;BMP_temperature;BMP_pressure;BME280_temperature;BME280_humidity;BME280_pressure;Samples;Min_cycle;Max_cycle;Signal;HPM_P1;HPM_P2
2024/04/23 00:02:16;;;;;;;3.50;2.80;;;;;;;2.58;68.60;99203.84;5495037;26;41705;-81
2024/04/23 00:04:43;;;;;;;3.07;2.77;;;;;;;2.56;68.50;99205.66;5493625;26;43928;-81
2024/04/23 00:07:12;;;;;;;3.40;2.63;;;;;;;2.64;68.64;99217.63;5494999;26;42283;-81
2024/04/23 00:09:39;;;;;;;3.53;2.77;;;;;;;2.60;69.14;99215.16;5495400;26;41464;-81
2024/04/23 00:12:10;;;;;;;3.07;2.67;;;;;;;2.45;69.05;99190.22;5498367;26;42801;-81
2024/04/23 00:14:37;;;;;;;4.57;3.13;;;;;;;2.43;69.58;99185.03;5471018;26;43458;-82
2024/04/23 00:17:07;;;;;;;3.70;2.97;;;;;;;2.44;69.53;99178.91;5493579;26;42912;-81
2024/04/23 00:19:33;;;;;;;3.03;2.63;;;;;;;2.45;69.93;99188.47;5493433;26;38526;-81
2024/04/23 00:22:02;;;;;;;4.43;3.13;;;;;;;2.42;70.11;99179.84;5462923;26;42836;-82
2024/04/23 00:24:29;;;;;;;2.80;2.30;;;;;;;2.38;69.64;99181.66;5493759;26;42794;-81
2024/04/23 00:26:59;;;;;;;3.67;2.37;;;;;;;2.47;69.68;99199.72;5494497;26;41988;-82
2024/04/23 00:29:29;;;;;;;3.50;2.87;;;;;;;2.51;69.52;99206.59;5495758;26;40962;-81
2024/04/23 00:31:58;;;;;;;3.53;2.20;;;;;;;2.36;70.05;99188.69;5494386;26;41725;-82
2024/04/23 00:34:25;;;;;;;3.73;2.73;;;;;;;2.48;70.03;99211.91;5495243;26;43092;-81
2024/04/23 00:36:55;;;;;;;2.77;2.53;;;;;;;2.33;69.81;99183.56;5494540;26;42160;-81
2024/04/23 00:39:21;;;;;;;3.27;2.60;;;;;;;2.11;70.26;99150.97;5494858;26;40109;-81
2024/04/23 00:41:51;;;;;;;3.83;2.10;;;;;;;2.39;69.77;99193.84;5493106;26;42858;-81
2024/04/23 00:44:18;;;;;;;3.33;2.50;;;;;;;2.39;69.91;99200.81;5493311;26;44069;-81
2024/04/23 00:46:50;;;;;;;3.07;2.20;;;;;;;2.31;69.59;99184.47;5493235;26;42164;-83
2024/04/23 00:49:18;;;;;;;2.70;2.40;;;;;;;2.29;69.65;99187.13;5494998;26;40328;-82
2024/04/23 00:51:51;;;;;;;2.83;2.10;;;;;;;2.22;69.90;99180.34;5494727;26;41436;-82
2024/04/23 00:54:21;;;;;;;2.97;2.57;;;;;;;2.25;69.19;99177.63;5493168;26;41426;-81
2024/04/23 00:56:50;;;;;;;3.83;2.57;;;;;;;2.22;69.22;99176.88;5494412;26;41976;-82
2024/04/23 00:59:17;;;;;;;2.07;1.87;;;;;;;2.33;69.07;99191.38;5493351;26;41129;-82
2024/04/23 01:01:46;;;;;;;2.77;2.53;;;;;;;2.18;69.11;99173.47;5494391;26;41626;-81
2024/04/23 01:04:16;;;;;;;2.90;2.20;;;;;;;2.29;69.53;99197.56;5494863;26;43627;-81
2024/04/23 01:06:47;;;;;;;2.57;2.03;;;;;;;2.17;69.38;99182.19;5494596;26;42449;-82
2024/04/23 01:09:13;;;;;;;2.77;2.33;;;;;;;2.12;69.19;99181.41;5493602;26;39119;-82
2024/04/23 01:11:43;;;;;;;3.23;2.20;;;;;;;2.13;69.41;99177.91;5497214;26;41768;-82
2024/04/23 01:14:09;;;;;;;4.20;2.00;;;;;;;2.13;69.10;99181.38;5494515;26;43016;-82
2024/04/23 01:16:41;;;;;;;4.63;2.77;;;;;;;2.08;69.49;99177.19;5495136;26;42960;-82
2024/04/23 01:19:21;;;;;;;4.10;2.30;;;;;;;2.07;69.98;99175.47;5495744;26;39974;-81
2024/04/23 01:21:57;;;;;;;3.13;2.20;;;;;;;2.15;70.20;99184.84;5492836;26;42275;-81
2024/04/23 01:24:32;;;;;;;3.63;2.37;;;;;;;2.13;69.88;99189.22;5493426;26;42638;-81
2024/04/23 01:27:04;;;;;;;3.73;2.30;;;;;;;2.12;70.28;99194.47;5492964;26;43253;-81
2024/04/23 01:29:31;;;;;;;4.10;2.83;;;;;;;1.98;70.31;99180.91;5493378;26;38755;-81
2024/04/23 01:32:02;;;;;;;3.20;2.50;;;;;;;2.07;70.16;99191.13;5492671;26;41599;-81
2024/04/23 01:34:31;;;;;;;3.90;2.20;;;;;;;1.94;70.07;99171.41;5494722;26;42651;-81
2024/04/23 01:37:01;;;;;;;2.83;2.40;;;;;;;1.90;70.17;99167.16;5461746;26;42276;-82
2024/04/23 01:39:29;;;;;;;3.70;2.80;;;;;;;1.93;70.26;99172.31;5493688;26;40576;-81
2024/04/23 01:42:00;;;;;;;2.90;2.60;;;;;;;1.82;70.88;99153.41;5494092;26;41627;-82
2024/04/23 01:44:30;;;;;;;2.57;2.37;;;;;;;1.99;71.13;99182.59;5492648;26;44564;-81
2024/04/23 01:46:59;;;;;;;3.50;2.80;;;;;;;1.89;71.24;99165.41;5494275;26;41903;-82
2024/04/23 01:49:26;;;;;;;3.13;2.37;;;;;;;1.77;71.46;99149.16;5492771;26;41219;-82
2024/04/23 01:51:56;;;;;;;4.13;2.60;;;;;;;1.85;71.33;99161.19;5494179;26;43346;-82
2024/04/23 01:54:23;;;;;;;2.53;2.33;;;;;;;1.87;70.93;99168.06;5494236;26;44121;-82
2024/04/23 01:56:52;;;;;;;3.10;2.57;;;;;;;1.94;71.24;99174.03;5492582;26;42600;-82
2024/04/23 01:59:19;;;;;;;2.90;2.27;;;;;;;1.95;72.00;99175.75;5492515;26;39608;-82
2024/04/23 02:01:55;;;;;;;3.00;2.33;;;;;;;1.72;71.95;99140.56;5461842;26;40274;-81
2024/04/23 02:04:23;;;;;;;2.90;2.40;;;;;;;1.92;72.48;99170.59;5492445;26;43192;-82
2024/04/23 02:06:53;;;;;;;3.13;2.57;;;;;;;1.93;72.10;99169.69;5494072;26;42444;-82
2024/04/23 02:09:21;;;;;;;2.90;2.33;;;;;;;1.93;72.41;99161.84;5492803;26;40771;-81
2024/04/23 02:11:58;;;;;;;5.50;2.43;;;;;;;1.93;72.19;99164.47;5492609;26;41558;-82
2024/04/23 02:14:25;;;;;;;2.83;2.20;;;;;;;1.93;71.51;99164.47;5492486;26;43969;-82
2024/04/23 02:16:57;;;;;;;2.93;2.30;;;;;;;1.77;71.82;99136.09;5493760;26;42255;-82
2024/04/23 02:19:23;;;;;;;3.07;2.23;;;;;;;1.74;71.49;99143.97;5492448;26;40118;-82
2024/04/23 02:21:53;;;;;;;3.00;1.87;;;;;;;1.89;71.43;99171.50;5492067;26;43222;-82
2024/04/23 02:24:19;;;;;;;2.60;2.40;;;;;;;1.69;71.68;99140.63;5492579;26;43717;-82
2024/04/23 02:26:49;;;;;;;2.77;2.17;;;;;;;1.71;71.23;99149.28;5491937;26;41984;-83
2024/04/23 02:29:15;;;;;;;3.03;2.47;;;;;;;1.76;71.52;99149.16;5461870;26;38764;-82
2024/04/23 02:31:44;;;;;;;2.67;1.87;;;;;;;1.77;71.33;99161.34;5491781;26;41621;-82
2024/04/23 02:34:13;;;;;;;5.33;2.80;;;;;;;1.82;71.19;99167.34;5493921;26;42528;-82
2024/04/23 02:36:42;;;;;;;2.40;2.20;;;;;;;1.81;70.99;99168.22;5461777;26;43036;-81
2024/04/23 02:39:09;;;;;;;2.43;2.00;;;;;;;1.80;71.12;99167.34;5493813;26;40401;-81
2024/04/23 02:41:49;;;;;;;5.47;2.30;;;;;;;1.71;71.03;99157.13;5492050;26;41339;-82
2024/04/23 02:44:16;;;;;;;3.97;2.30;;;;;;;1.77;70.69;99174.41;5461705;26;41586;-82
2024/04/23 02:46:45;;;;;;;2.70;2.20;;;;;;;1.53;71.47;99141.84;5461021;26;40721;-82
2024/04/23 02:49:14;;;;;;;2.60;2.40;;;;;;;1.63;71.43;99153.81;5494614;26;40166;-82
2024/04/23 02:51:54;;;;;;;3.67;2.67;;;;;;;1.60;71.31;99142.59;5495792;26;41589;-82
2024/04/23 02:54:21;;;;;;;3.03;2.00;;;;;;;1.62;70.78;99146.00;5494980;26;44285;-82
2024/04/23 02:56:51;;;;;;;3.07;1.87;;;;;;;1.60;71.52;99151.28;5496314;26;42092;-82
2024/04/23 02:59:17;;;;;;;2.33;2.13;;;;;;;1.46;71.60;99124.63;5496293;26;38562;-82
2024/04/23 03:01:46;;;;;;;2.70;2.37;;;;;;;1.57;70.90;99146.13;5506246;26;41891;-82
2024/04/23 03:04:16;;;;;;;2.93;2.37;;;;;;;1.66;71.03;99165.94;5499587;26;42915;-81
2024/04/23 03:06:45;;;;;;;2.33;1.97;;;;;;;1.65;71.20;99165.06;5494214;26;42168;-82
2024/04/23 03:09:11;;;;;;;2.60;2.30;;;;;;;1.50;71.28;99141.91;5494391;26;38569;-82
2024/04/23 03:11:41;;;;;;;2.50;2.30;;;;;;;1.24;71.53;99099.84;5495901;26;41914;-82
2024/04/23 03:14:07;;;;;;;3.33;2.27;;;;;;;1.20;71.30;99088.66;5463743;26;42863;-81
2024/04/23 03:16:36;;;;;;;5.20;2.50;;;;;;;1.50;71.54;99147.13;5463575;26;40946;-82
2024/04/23 03:19:03;;;;;;;2.93;2.33;;;;;;;1.43;72.03;99138.59;5494582;26;40144;-82
2024/04/23 03:21:34;;;;;;;2.43;2.07;;;;;;;1.53;71.77;99157.50;5494293;26;40255;-82
2024/04/23 03:24:01;;;;;;;2.57;2.37;;;;;;;1.53;71.29;99162.72;5496172;26;42429;-82
2024/04/23 03:26:30;;;;;;;3.33;2.37;;;;;;;1.51;71.33;99167.13;5495751;26;42888;-82
2024/04/23 03:28:57;;;;;;;2.47;2.23;;;;;;;1.40;71.53;99143.00;5495509;26;40221;-82
2024/04/23 03:31:26;;;;;;;2.43;2.03;;;;;;;1.48;71.35;99164.59;5493818;26;43335;-82
2024/04/23 03:33:52;;;;;;;3.07;2.40;;;;;;;1.40;71.13;99156.06;5494211;26;42713;-82
2024/04/23 03:36:21;;;;;;;2.70;1.80;;;;;;;1.35;71.24;99147.47;5495854;26;42264;-82
2024/04/23 03:38:53;;;;;;;2.67;2.20;;;;;;;1.44;71.27;99158.56;5494146;26;39926;-82
2024/04/23 03:41:19;;;;;;;2.60;2.10;;;;;;;1.26;71.26;99143.28;5494180;26;41852;-82
2024/04/23 03:43:49;;;;;;;3.63;2.50;;;;;;;1.28;72.36;99141.50;5495347;26;43974;-82
2024/04/23 03:46:18;;;;;;;2.83;2.30;;;;;;;1.37;72.07;99156.09;5463211;26;41086;-82
2024/04/23 03:48:47;;;;;;;3.43;2.30;;;;;;;1.32;71.69;99148.41;5495570;26;39948;-82
2024/04/23 03:51:14;;;;;;;2.37;2.17;;;;;;;1.22;71.49;99136.44;5494138;26;42389;-82
2024/04/23 03:53:44;;;;;;;2.57;2.30;;;;;;;1.23;71.67;99147.72;5494190;26;42551;-82
2024/04/23 03:56:13;;;;;;;3.17;2.00;;;;;;;1.23;71.30;99142.50;5494024;26;42259;-81
2024/04/23 03:58:43;;;;;;;2.73;2.30;;;;;;;1.19;71.49;99130.41;5494225;26;40100;-82
2024/04/23 04:01:09;;;;;;;2.00;1.90;;;;;;;1.13;71.39;99125.31;5492963;26;42108;-82
2024/04/23 04:06:23;;;;;;;1.97;1.80;;;;;;;1.24;71.20;99152.88;5463085;26;43506;-82
2024/04/23 04:08:52;;;;;;;2.10;1.90;;;;;;;1.15;71.30;99136.56;5493232;26;40072;-82
2024/04/23 04:11:24;;;;;;;2.83;2.07;;;;;;;0.96;71.29;99108.28;5494990;26;42888;-82
2024/04/23 04:13:54;;;;;;;2.30;2.10;;;;;;;1.19;71.54;99144.31;5493324;26;43834;-82
2024/04/23 04:16:20;;;;;;;3.70;2.67;;;;;;;1.11;71.63;99134.94;5493075;26;41406;-82
2024/04/23 04:18:49;;;;;;;2.77;2.13;;;;;;;1.12;71.23;99139.22;5493333;26;39856;-82
2024/04/23 04:21:18;;;;;;;3.30;1.60;;;;;;;1.10;71.41;99128.00;5493161;26;40497;-82
2024/04/23 04:23:45;;;;;;;3.97;2.27;;;;;;;1.25;71.11;99151.13;5462567;26;41782;-82
2024/04/23 04:26:15;;;;;;;2.17;1.97;;;;;;;1.06;71.05;99111.53;5494627;25;43162;-82
2024/04/23 04:28:45;;;;;;;4.07;1.93;;;;;;;1.25;71.09;99141.56;5493193;26;39536;-82
2024/04/23 04:31:15;;;;;;;2.27;2.00;;;;;;;1.29;70.77;99148.44;5492701;26;42087;-82
2024/04/23 04:33:41;;;;;;;2.17;1.80;;;;;;;1.27;71.18;99147.63;5494180;26;42762;-82
2024/04/23 04:36:10;;;;;;;2.83;2.07;;;;;;;1.31;71.50;99149.28;5494619;26;42276;-82
2024/04/23 04:38:37;;;;;;;2.63;1.97;;;;;;;1.24;70.95;99131.16;5494351;26;40151;-82
2024/04/23 04:41:06;;;;;;;2.30;2.10;;;;;;;1.36;70.74;99150.03;5492707;26;40532;-82
2024/04/23 04:43:32;;;;;;;2.40;1.87;;;;;;;1.39;70.76;99143.88;5492730;26;42893;-82
2024/04/23 04:46:04;;;;;;;2.50;2.30;;;;;;;1.36;70.67;99133.53;5493995;26;43067;-82
2024/04/23 04:48:31;;;;;;;2.90;2.40;;;;;;;1.38;70.96;99137.81;5462253;26;39538;-83
2024/04/23 04:51:00;;;;;;;2.37;2.17;;;;;;;1.40;70.64;99119.53;5492584;26;42163;-82
2024/04/23 04:53:27;;;;;;;3.03;2.23;;;;;;;1.47;70.30;99115.91;5462120;26;41794;-82
2024/04/23 04:55:56;;;;;;;3.10;2.17;;;;;;;1.59;70.32;99125.22;5461966;26;41138;-83
2024/04/23 04:58:26;;;;;;;2.40;2.10;;;;;;;1.70;70.24;99123.22;5492899;26;39935;-82
2024/04/23 05:00:52;;;;;;;2.70;1.93;;;;;;;1.77;70.46;99124.78;5493813;26;41798;-81
2024/04/23 05:03:24;;;;;;;3.20;2.23;;;;;;;1.97;70.31;99143.47;5493382;26;44357;-80
2024/04/23 05:05:50;;;;;;;2.40;2.20;;;;;;;1.94;70.24;99127.03;5492279;26;40695;-82
2024/04/23 05:08:20;;;;;;;2.53;2.20;;;;;;;2.16;70.03;99154.34;5493812;26;41338;-83
2024/04/23 05:10:46;;;;;;;2.50;2.30;;;;;;;2.08;69.94;99130.16;5492806;26;41848;-83
2024/04/23 05:13:15;;;;;;;3.60;2.33;;;;;;;2.12;69.67;99118.72;5492493;26;43777;-84
2024/04/23 05:15:42;;;;;;;2.77;2.30;;;;;;;2.33;69.05;99136.50;5461741;26;42275;-82
2024/04/23 05:18:11;;;;;;;2.47;2.20;;;;;;;2.38;68.78;99121.56;5461838;26;38703;-84
2024/04/23 05:20:40;;;;;;;2.90;1.93;;;;;;;2.67;68.84;99151.31;5461770;26;41723;-82
2024/04/23 05:23:09;;;;;;;3.13;2.20;;;;;;;2.67;68.62;99135.63;5492446;26;44657;-82
2024/04/23 05:25:36;;;;;;;2.83;2.00;;;;;;;2.77;68.05;99127.50;5492528;26;42620;-82
2024/04/23 05:28:05;;;;;;;2.13;1.90;;;;;;;2.86;67.80;99122.03;5492228;26;38805;-83
2024/04/23 05:33:20;;;;;;;2.60;2.30;;;;;;;3.26;67.00;99147.09;5491924;26;42955;-84
2024/04/23 05:35:51;;;;;;;2.43;2.03;;;;;;;3.41;66.44;99158.88;5461136;26;42517;-85
2024/04/23 05:38:21;;;;;;;3.63;2.33;;;;;;;3.53;66.37;99161.13;5494141;26;39821;-84
2024/04/23 05:40:50;;;;;;;3.57;2.27;;;;;;;3.59;66.13;99142.63;5461741;26;40616;-84
2024/04/23 05:43:20;;;;;;;3.30;2.40;;;;;;;3.95;65.33;99159.88;5492240;26;42568;-82
2024/04/23 05:45:49;;;;;;;2.27;2.07;;;;;;;4.41;64.08;99165.41;5462035;26;41399;-82
2024/04/23 05:48:56;;;;;;;2.63;2.30;;;;;;;4.91;60.92;99190.78;5502081;26;40332;-83
2024/04/23 05:52:21;;;;;;;2.30;2.10;;;;;;;5.12;60.53;99189.19;5494004;26;41650;-82
2024/04/23 05:55:35;;;;;;;2.20;2.00;;;;;;;5.49;60.24;99198.38;5494160;26;42677;-82
2024/04/23 05:58:02;;;;;;;3.47;2.03;;;;;;;5.61;59.09;99209.28;5491783;26;41077;-83
2024/04/23 06:00:38;;;;;;;2.03;1.93;;;;;;;5.53;58.76;99194.72;5492056;26;41045;-84
2024/04/23 06:03:05;;;;;;;3.10;2.40;;;;;;;5.43;58.73;99188.09;5489606;26;42898;-87
2024/04/23 06:05:34;;;;;;;3.53;2.20;;;;;;;5.48;59.12;99191.41;5458948;26;41466;-82
2024/04/23 06:08:00;;;;;;;2.60;1.80;;;;;;;5.49;58.86;99185.25;5493414;26;43538;-81
2024/04/23 06:10:30;;;;;;;3.07;2.30;;;;;;;5.61;58.47;99184.78;5466897;26;39972;-81
2024/04/23 06:13:02;;;;;;;2.53;1.93;;;;;;;5.83;58.74;99206.72;5455177;26;41854;-83
2024/04/23 06:15:28;;;;;;;2.83;1.73;;;;;;;5.85;58.36;99202.25;5455410;26;42582;-81
2024/04/23 06:17:58;;;;;;;2.77;2.50;;;;;;;5.89;57.36;99209.16;5454903;26;42214;-83
2024/04/23 06:20:24;;;;;;;3.20;2.37;;;;;;;5.75;56.51;99188.63;5475377;26;41188;-86
2024/04/23 06:22:54;;;;;;;2.17;1.97;;;;;;;6.09;56.75;99211.88;5474279;26;41753;-82
2024/04/23 06:25:24;;;;;;;2.87;2.00;;;;;;;6.09;56.72;99190.81;5478649;26;42933;-81
2024/04/23 06:27:54;;;;;;;2.47;2.27;;;;;;;6.27;56.47;99205.03;5498738;26;44270;-83
2024/04/23 06:30:23;;;;;;;2.17;1.97;;;;;;;6.56;54.93;99219.66;5478251;26;40058;-83
2024/04/23 06:32:52;;;;;;;2.80;2.30;;;;;;;6.62;55.71;99216.78;5425293;26;41959;-82
2024/04/23 06:35:20;;;;;;;2.43;2.00;;;;;;;6.71;54.99;99197.97;5467534;26;20251;-83
2024/04/23 06:37:49;;;;;;;2.43;1.90;;;;;;;6.66;52.02;99209.63;5461213;26;40651;-81
2024/04/23 06:40:16;;;;;;;3.17;1.97;;;;;;;6.83;53.99;99208.00;5492694;26;41308;-81
2024/04/23 06:42:47;;;;;;;2.10;1.90;;;;;;;6.90;53.88;99205.97;5460725;26;42021;-83
2024/04/23 06:45:13;;;;;;;2.83;1.87;;;;;;;6.75;54.60;99160.09;5491251;26;43791;-82
2024/04/23 06:47:46;;;;;;;2.50;2.23;;;;;;;7.11;53.12;99220.00;5491604;26;42275;-82
2024/04/23 06:50:12;;;;;;;2.33;2.03;;;;;;;7.21;52.90;99222.16;5490874;26;39991;-82
2024/04/23 06:52:41;;;;;;;2.80;2.30;;;;;;;7.25;51.98;99201.81;5460863;26;43655;-82
2024/04/23 06:55:08;;;;;;;3.73;2.20;;;;;;;7.48;52.74;99204.31;5491193;26;42958;-83
2024/04/23 06:57:38;;;;;;;2.57;1.97;;;;;;;7.67;52.93;99214.00;5490864;26;42268;-84
2024/04/23 07:00:05;;;;;;;2.30;2.10;;;;;;;7.73;52.52;99203.19;5491198;26;40278;-83
2024/04/23 07:02:35;;;;;;;2.90;1.93;;;;;;;7.74;51.53;99200.50;5490477;26;40350;-83
2024/04/23 07:05:05;;;;;;;2.17;1.90;;;;;;;8.03;51.26;99222.06;5460730;26;43184;-82
2024/04/23 07:10:31;;;;;;;2.67;2.40;;;;;;;8.12;50.46;99196.09;5456381;26;38805;-85
2024/04/23 07:12:58;;;;;;;2.63;2.20;;;;;;;8.36;50.31;99182.69;5490526;26;41810;-86
2024/04/23 07:15:27;;;;;;;2.37;2.17;;;;;;;9.16;50.63;99206.81;5460542;26;41968;-87
2024/04/23 07:17:54;;;;;;;2.23;2.03;;;;;;;9.64;49.39;99212.19;5490806;26;43505;-82
2024/04/23 07:20:26;;;;;;;2.83;2.60;;;;;;;9.95;48.77;99229.94;5490498;26;39930;-80
2024/04/23 07:22:52;;;;;;;3.37;2.27;;;;;;;10.19;49.62;99217.19;5491779;26;41859;-81
2024/04/23 07:25:22;;;;;;;2.90;2.33;;;;;;;10.50;46.27;99231.41;5460010;26;41896;-81
2024/04/23 07:27:48;;;;;;;5.53;2.37;;;;;;;10.56;45.52;99226.59;5459686;26;42793;-84
2024/04/23 07:30:21;;;;;;;2.37;2.00;;;;;;;10.31;46.78;99163.56;5490193;26;38943;-81
2024/04/23 07:32:48;;;;;;;2.70;2.10;;;;;;;10.53;45.90;99207.38;5459330;26;40211;-86
2024/04/23 07:35:17;;;;;;;2.40;2.20;;;;;;;10.38;45.49;99186.13;5460212;26;42538;-81
2024/04/23 07:37:46;;;;;;;2.93;2.40;;;;;;;10.56;46.76;99178.06;5445355;26;43414;-82
2024/04/23 07:40:15;;;;;;;2.50;2.30;;;;;;;10.92;46.04;99220.13;5458537;26;41369;-81
2024/04/23 07:42:42;;;;;;;2.57;2.30;;;;;;;11.03;43.52;99238.91;5440460;26;42203;-83
2024/04/23 07:45:11;;;;;;;2.60;2.20;;;;;;;11.28;43.68;99219.75;5462849;26;42716;-84
2024/04/23 07:47:38;;;;;;;3.80;2.10;;;;;;;11.79;42.53;99235.22;5494614;26;42160;-81
2024/04/23 07:50:08;;;;;;;2.37;2.17;;;;;;;12.03;42.44;99208.09;5493391;26;40021;-82
2024/04/23 07:52:35;;;;;;;2.40;2.00;;;;;;;12.36;42.87;99215.75;5494496;26;41303;-85
2024/04/23 07:55:07;;;;;;;2.10;1.90;;;;;;;12.43;43.46;99217.91;5493082;26;42748;-81
2024/04/23 07:57:33;;;;;;;2.13;1.90;;;;;;;12.73;44.00;99220.38;5492940;26;42827;-78
2024/04/23 08:00:02;;;;;;;2.20;1.93;;;;;;;13.09;39.78;99235.69;5462829;26;39971;-84
2024/04/23 08:02:30;;;;;;;4.77;2.40;;;;;;;13.69;38.45;99253.81;5489973;26;40728;-84
2024/04/23 08:05:01;;;;;;;2.20;2.00;;;;;;;14.35;40.06;99216.22;5456829;26;42833;-86
2024/04/23 08:07:27;;;;;;;2.67;2.10;;;;;;;14.90;36.90;99246.03;5456160;26;40785;-82
2024/04/23 08:09:58;;;;;;;2.20;2.00;;;;;;;15.01;37.90;99230.09;5455963;26;39787;-85
2024/04/23 08:12:28;;;;;;;2.20;2.00;;;;;;;15.02;36.58;99234.47;5426144;26;40581;-83
2024/04/23 08:14:57;;;;;;;2.70;2.00;;;;;;;14.89;36.08;99231.00;5489269;26;41695;-80
2024/04/23 08:17:23;;;;;;;2.60;2.23;;;;;;;15.05;34.72;99247.59;5462083;26;42239;-83
2024/04/23 08:19:52;;;;;;;2.27;1.90;;;;;;;15.24;34.43;99239.88;5494205;26;41335;-80
2024/04/23 08:22:22;;;;;;;2.27;1.83;;;;;;;15.63;34.68;99240.53;5492103;26;42268;-83
2024/04/23 08:24:48;;;;;;;1.93;1.77;;;;;;;16.07;33.90;99245.91;5468075;26;44892;-81
2024/04/23 08:27:18;;;;;;;2.63;2.00;;;;;;;16.74;34.49;99227.16;5461783;26;42163;-82
2024/04/23 08:29:47;;;;;;;2.40;1.90;;;;;;;17.25;34.06;99242.56;5456995;26;41257;-80
2024/04/23 08:32:16;;;;;;;2.10;1.90;;;;;;;17.54;31.29;99256.19;5457233;26;41613;-79
2024/04/23 08:34:42;;;;;;;1.90;1.80;;;;;;;18.35;30.44;99243.81;5476400;26;44268;-80
2024/04/23 08:37:11;;;;;;;2.77;2.00;;;;;;;19.27;30.41;99239.94;5495713;26;43071;-79
2024/04/23 08:39:38;;;;;;;2.07;1.90;;;;;;;19.69;30.83;99217.13;5467870;26;39720;-85
2024/04/23 08:42:12;;;;;;;2.00;1.80;;;;;;;20.20;30.46;99240.03;5498634;26;42467;-81
2024/04/23 08:44:41;;;;;;;2.17;1.97;;;;;;;21.32;28.15;99229.94;5500311;26;42556;-80
2024/04/23 08:47:13;;;;;;;1.70;1.60;;;;;;;22.93;25.22;99284.09;5495770;26;41703;-78
2024/04/23 08:49:40;;;;;;;1.67;1.57;;;;;;;24.02;23.14;99296.56;5495613;26;41676;-82
2024/04/23 08:52:10;;;;;;;1.90;1.80;;;;;;;25.24;23.23;99289.75;5491755;26;41939;-81
2024/04/23 08:54:36;;;;;;;1.95;1.80;;;;;;;26.93;23.38;99273.97;5460630;26;42732;-79
2024/04/23 08:57:06;;;;;;;1.77;1.65;;;;;;;28.86;19.57;99290.78;5493440;26;43321;-85
2024/04/23 08:59:33;;;;;;;1.58;1.48;;;;;;;30.24;20.72;99279.34;5460682;26;39108;-81
2024/04/23 09:02:07;;;;;;;1.40;1.30;;;;;;;31.07;18.91;99280.38;5461724;26;41822;-88
2024/04/23 09:04:37;;;;;;;1.50;1.40;;;;;;;30.99;18.02;99231.38;5457413;26;41183;-83
2024/04/23 09:07:06;;;;;;;1.33;1.23;;;;;;;31.13;18.38;99264.19;5425164;26;40964;-84
2024/04/23 09:09:33;;;;;;;1.58;1.48;;;;;;;30.68;17.75;99250.44;5455823;26;40452;-82
2024/04/23 09:12:03;;;;;;;1.55;1.40;;;;;;;30.86;17.54;99269.75;5493556;26;42981;-80
2024/04/23 09:14:30;;;;;;;1.70;1.60;;;;;;;30.82;16.08;99273.13;5492954;26;44363;-81
2024/04/23 09:16:59;;;;;;;1.52;1.42;;;;;;;30.91;16.21;99278.13;5492582;26;42173;-83
2024/04/23 09:19:26;;;;;;;1.17;1.17;;;;;;;31.36;17.94;99226.16;5491538;26;40222;-84
2024/04/23 09:21:58;;;;;;;1.40;1.30;;;;;;;32.34;16.82;99230.00;5461073;26;41130;-84
2024/04/23 09:24:26;;;;;;;1.50;1.40;;;;;;;33.29;16.08;99196.53;5491548;26;44019;-81
2024/04/23 09:26:55;;;;;;;1.58;1.48;;;;;;;34.47;15.94;99202.78;5460291;26;42041;-82
2024/04/23 09:29:22;;;;;;;1.33;1.23;;;;;;;35.22;14.03;99216.44;5492578;26;40015;-85
2024/04/23 09:31:52;;;;;;;1.20;1.20;;;;;;;35.55;14.25;99217.59;5459445;26;41643;-86
2024/04/23 09:34:25;;;;;;;1.52;1.42;;;;;;;35.57;13.63;99201.66;5461190;26;41652;-87
2024/04/23 09:36:55;;;;;;;4.22;3.83;;;;;;;35.89;15.23;99213.78;5492661;26;42069;-82
2024/04/23 09:39:24;;;;;;;1.50;1.40;;;;;;;35.06;14.67;99173.16;5493345;26;40145;-82
2024/04/23 09:41:57;;;;;;;1.63;1.52;;;;;;;33.93;15.80;99175.66;5461228;26;41985;-85
2024/04/23 09:44:24;;;;;;;1.67;1.23;;;;;;;32.35;15.75;99198.78;5460455;26;41981;-84
2024/04/23 09:46:54;;;;;;;1.92;1.63;;;;;;;30.84;17.15;99131.53;5492019;26;42471;-81
2024/04/23 09:49:20;;;;;;;1.85;1.75;;;;;;;30.46;17.95;99156.06;5491142;26;39113;-81
2024/04/23 09:51:51;;;;;;;1.50;1.40;;;;;;;29.52;18.35;99134.63;5490633;26;41991;-80
2024/04/23 09:54:26;;;;;;;1.95;1.85;;;;;;;28.57;18.46;99168.38;5491065;26;44334;-88
2024/04/23 09:57:03;;;;;;;1.60;1.50;;;;;;;27.57;19.32;99154.34;5460109;26;41393;-86
2024/04/23 09:59:33;;;;;;;2.27;2.10;;;;;;;26.60;20.37;99113.19;5460265;26;38461;-79
2024/04/23 10:02:02;;;;;;;1.93;1.83;;;;;;;26.17;20.76;99129.38;5491002;26;41934;-79
2024/04/23 10:04:35;;;;;;;1.70;1.60;;;;;;;26.00;20.97;99136.84;5490871;26;43970;-83
2024/04/23 10:07:08;;;;;;;1.87;1.77;;;;;;;25.82;20.91;99101.13;5459883;26;41925;-82
2024/04/23 10:09:42;;;;;;;2.23;2.03;;;;;;;25.35;20.06;99107.66;5460207;26;38885;-83
2024/04/23 10:12:10;;;;;;;1.97;1.57;;;;;;;24.74;21.83;99108.66;5450301;26;42971;-81
2024/04/23 10:14:49;;;;;;;2.63;1.63;;;;;;;24.21;22.95;99113.00;5424035;26;42436;-84
2024/04/23 10:17:19;;;;;;;1.77;1.67;;;;;;;23.56;24.40;99077.22;5462929;26;42277;-79
2024/04/23 10:19:50;;;;;;;1.73;1.63;;;;;;;22.83;23.24;99070.03;5490443;26;41698;-79
2024/04/23 10:22:18;;;;;;;1.90;1.80;;;;;;;22.16;24.06;99065.66;5482662;26;41812;-81
2024/04/23 10:24:50;;;;;;;1.93;1.73;;;;;;;21.52;23.38;99056.25;5423498;26;41870;-79
2024/04/23 10:27:17;;;;;;;2.57;1.73;;;;;;;20.92;23.03;99084.94;5427883;26;40942;-83
2024/04/23 10:29:48;;;;;;;3.07;1.90;;;;;;;20.53;26.51;99071.81;5489707;26;41250;-79
2024/04/23 10:32:18;;;;;;;2.47;2.27;;;;;;;20.31;26.68;99021.97;5489106;26;41503;-82
2024/04/23 10:34:50;;;;;;;2.23;2.03;;;;;;;20.60;26.06;99072.06;5489827;26;42817;-77
2024/04/23 10:37:19;;;;;;;1.93;1.70;;;;;;;20.41;27.89;99024.63;5492151;26;42707;-84
2024/04/23 10:39:52;;;;;;;2.10;1.90;;;;;;;20.40;27.00;99039.91;5490124;26;38545;-82
2024/04/23 10:42:19;;;;;;;2.40;1.70;;;;;;;20.97;27.24;99026.94;5460285;26;41840;-82
2024/04/23 10:44:49;;;;;;;2.50;1.80;;;;;;;22.03;25.82;99027.53;5490369;26;44215;-80
2024/04/23 10:47:16;;;;;;;1.93;1.77;;;;;;;22.86;25.78;99020.25;5490991;26;42638;-81
2024/04/23 10:49:45;;;;;;;2.13;1.93;;;;;;;24.19;25.49;99035.72;5490695;26;38528;-84
2024/04/23 10:52:12;;;;;;;2.10;1.90;;;;;;;25.27;22.83;99048.09;5493722;26;42940;-88
2024/04/23 10:54:41;;;;;;;4.80;2.37;;;;;;;24.87;22.98;99041.16;5490133;26;43029;-82
2024/04/23 10:57:10;;;;;;;2.40;2.20;;;;;;;23.83;23.04;99044.34;5492383;26;42290;-83
2024/04/23 10:59:41;;;;;;;2.10;1.90;;;;;;;24.26;22.62;99028.59;5485421;26;40666;-83
2024/04/23 11:02:09;;;;;;;2.67;2.00;;;;;;;24.70;23.73;99024.22;5426097;26;42366;-82
2024/04/23 11:04:39;;;;;;;2.70;2.13;;;;;;;25.35;22.45;99063.44;5477327;26;44368;-82
2024/04/23 11:07:08;;;;;;;2.63;2.43;;;;;;;24.97;20.22;99066.16;5461280;26;41834;-85
2024/04/23 11:09:39;;;;;;;2.30;2.10;;;;;;;24.80;20.14;99037.50;5460989;26;38721;-82
2024/04/23 11:12:18;;;;;;;2.37;2.17;;;;;;;25.69;23.08;99005.97;5500535;26;41757;-85
2024/04/23 11:14:48;;;;;;;2.23;2.03;;;;;;;26.31;20.13;99027.22;5472438;26;41582;-86
2024/04/23 11:17:16;;;;;;;2.30;2.10;;;;;;;27.00;19.56;99033.78;5462859;26;41316;-83
2024/04/23 11:19:47;;;;;;;2.43;2.00;;;;;;;27.16;20.65;99027.22;5463020;26;40089;-87
2024/04/23 11:22:15;;;;;;;2.17;1.90;;;;;;;26.67;20.69;99035.31;5463679;26;40662;-87
2024/04/23 11:24:54;;;;;;;2.00;1.80;;;;;;;26.18;21.88;98989.88;5479365;26;43121;-84
2024/04/23 11:27:25;;;;;;;2.13;1.93;;;;;;;25.72;22.89;98990.16;5426664;26;40954;-84
2024/04/23 11:29:55;;;;;;;2.30;2.10;;;;;;;25.42;21.81;98986.59;5439534;26;38894;-83
2024/04/23 11:32:25;;;;;;;3.43;2.13;;;;;;;26.16;22.50;98997.38;5462377;26;43071;-85
2024/04/23 11:34:55;;;;;;;2.00;1.90;;;;;;;26.76;22.83;98975.22;5483826;26;43665;-84
2024/04/23 11:37:22;;;;;;;2.33;2.13;;;;;;;27.15;21.38;99006.50;5458234;26;42470;-83
2024/04/23 11:40:04;;;;;;;2.50;2.33;;;;;;;26.51;19.56;98957.66;5433495;26;38879;-85
2024/04/23 11:42:33;;;;;;;1.87;1.77;;;;;;;26.53;22.29;98971.88;5462565;26;40159;-83
2024/04/23 11:45:06;;;;;;;2.27;2.07;;;;;;;26.62;21.80;98984.28;5453440;26;41968;-83
2024/04/23 11:47:33;;;;;;;2.10;1.90;;;;;;;26.47;21.64;98948.19;5457908;26;42891;-82
2024/04/23 11:50:05;;;;;;;2.23;2.10;;;;;;;26.88;21.22;98969.22;5426123;26;38936;-84
2024/04/23 11:52:32;;;;;;;2.00;1.90;;;;;;;27.63;21.76;98972.06;5456663;26;42127;-82
2024/04/23 11:55:08;;;;;;;2.30;2.10;;;;;;;27.90;18.17;98943.09;5459201;26;43986;-82
2024/04/23 11:57:39;;;;;;;2.13;1.93;;;;;;;27.85;19.66;98989.13;5494564;26;42286;-87
2024/04/23 12:00:19;;;;;;;2.37;2.17;;;;;;;26.74;19.42;99001.75;5490929;26;40275;-84